createdAt,value
2018-02-13T00:00:02.025Z,807.42
2018-02-13T00:01:02.013Z,807.43
2018-02-13T00:02:02.011Z,807.41
2018-02-13T00:03:02.009Z,807.38
2018-02-13T00:04:02.007Z,807.37
2018-02-13T00:05:02.006Z,807.39
2018-02-13T00:06:02.007Z,807.36
2018-02-13T00:07:02.006Z,807.33
2018-02-13T00:08:01.995Z,807.33
2018-02-13T00:09:01.994Z,807.35
2018-02-13T00:10:02.007Z,807.33
2018-02-13T00:11:01.993Z,807.29
2018-02-13T00:12:01.986Z,807.32
2018-02-13T00:13:01.984Z,807.31
2018-02-13T00:14:01.981Z,807.30
2018-02-13T00:15:01.977Z,807.32
2018-02-13T00:16:01.980Z,807.28
2018-02-13T00:17:01.972Z,807.26
2018-02-13T00:18:01.969Z,807.27
2018-02-13T00:19:01.968Z,807.29
2018-02-13T00:20:02.022Z,807.26
2018-02-13T00:21:01.961Z,807.26
2018-02-13T00:22:01.960Z,807.28
2018-02-13T00:23:01.956Z,807.25
2018-02-13T00:24:01.953Z,807.28
2018-02-13T00:25:01.951Z,807.25
2018-02-13T00:26:01.954Z,807.28
2018-02-13T00:27:01.950Z,807.28
2018-02-13T00:28:01.944Z,807.29
2018-02-13T00:29:01.939Z,807.24
2018-02-13T00:30:01.943Z,807.26
2018-02-13T00:31:01.939Z,807.24
2018-02-13T00:32:01.937Z,807.25
2018-02-13T00:33:01.934Z,807.23
2018-02-13T00:34:01.933Z,807.21
2018-02-13T00:35:01.925Z,807.23
2018-02-13T00:36:01.926Z,807.21
2018-02-13T00:37:01.924Z,807.23
2018-02-13T00:38:01.922Z,807.24
2018-02-13T00:39:01.917Z,807.30
2018-02-13T00:40:01.914Z,807.27
2018-02-13T00:41:01.912Z,807.28
2018-02-13T00:42:01.909Z,807.28
2018-02-13T00:43:01.910Z,807.27
2018-02-13T00:44:01.903Z,807.27
2018-02-13T00:45:01.901Z,807.27
2018-02-13T00:46:01.894Z,807.26
2018-02-13T00:47:01.890Z,807.27
2018-02-13T00:48:01.888Z,807.29
2018-02-13T00:49:01.886Z,807.25
2018-02-13T00:50:01.890Z,807.25
2018-02-13T00:51:01.879Z,807.30
2018-02-13T00:52:01.883Z,807.23
2018-02-13T00:53:01.876Z,807.23
2018-02-13T00:54:01.874Z,807.19
2018-02-13T00:55:01.869Z,807.15
2018-02-13T00:56:01.866Z,807.19
2018-02-13T00:57:01.863Z,807.16
2018-02-13T00:58:01.866Z,807.19
2018-02-13T00:59:01.856Z,807.16
2018-02-13T01:00:01.858Z,807.17
2018-02-13T01:01:01.850Z,807.15
2018-02-13T01:02:01.856Z,807.16
2018-02-13T01:03:01.846Z,807.11
2018-02-13T01:04:01.851Z,807.15
2018-02-13T01:05:01.841Z,807.11
2018-02-13T01:06:01.842Z,807.15
2018-02-13T01:07:01.834Z,807.14
2018-02-13T01:08:01.832Z,807.15
2018-02-13T01:09:01.835Z,807.12
2018-02-13T01:10:01.827Z,807.13
2018-02-13T01:11:01.827Z,807.08
2018-02-13T01:12:01.820Z,807.11
2018-02-13T01:13:01.818Z,807.17
2018-02-13T01:14:01.814Z,807.12
2018-02-13T01:15:01.814Z,807.06
2018-02-13T01:16:01.815Z,807.07
2018-02-13T01:17:01.815Z,807.08
2018-02-13T01:18:01.805Z,807.03
2018-02-13T01:19:01.802Z,807.09
2018-02-13T01:20:01.803Z,807.12
2018-02-13T01:21:01.795Z,807.06
2018-02-13T01:22:01.798Z,807.04
2018-02-13T01:23:01.796Z,807.04
2018-02-13T01:24:01.788Z,807.07
2018-02-13T01:25:01.840Z,807.03
2018-02-13T01:26:01.787Z,807.07
2018-02-13T01:27:01.784Z,807.08
2018-02-13T01:28:01.783Z,807.05
2018-02-13T01:29:01.777Z,807.10
2018-02-13T01:30:01.778Z,807.02
2018-02-13T01:31:01.768Z,807.04
2018-02-13T01:32:01.764Z,807.02
2018-02-13T01:33:01.764Z,807.05
2018-02-13T01:34:01.766Z,807.10
2018-02-13T01:35:01.756Z,807.09
2018-02-13T01:36:01.757Z,807.08
2018-02-13T01:37:01.751Z,807.11
2018-02-13T01:38:01.752Z,807.09
2018-02-13T01:39:01.745Z,807.13
2018-02-13T01:40:01.748Z,807.11
2018-02-13T01:41:01.744Z,807.11
2018-02-13T01:42:01.740Z,807.07
2018-02-13T01:43:01.737Z,807.10
2018-02-13T01:44:01.729Z,807.10
2018-02-13T01:45:01.730Z,807.12
2018-02-13T01:46:01.725Z,807.10
2018-02-13T01:47:01.720Z,807.04
2018-02-13T01:48:01.724Z,807.07
2018-02-13T01:49:01.715Z,807.06
2018-02-13T01:50:01.718Z,807.00
2018-02-13T01:51:01.715Z,807.04
2018-02-13T01:52:01.705Z,807.02
2018-02-13T01:53:01.709Z,807.06
2018-02-13T01:54:01.701Z,807.03
2018-02-13T01:55:01.695Z,807.03
2018-02-13T01:56:01.698Z,807.07
2018-02-13T01:57:01.696Z,807.05
2018-02-13T01:58:01.690Z,807.06
2018-02-13T01:59:01.689Z,807.02
2018-02-13T02:00:01.682Z,807.01
2018-02-13T02:01:01.685Z,807.01
2018-02-13T02:02:01.680Z,807.01
2018-02-13T02:03:01.676Z,807.03
2018-02-13T02:04:01.675Z,806.97
2018-02-13T02:05:01.672Z,807.02
2018-02-13T02:06:01.667Z,807.01
2018-02-13T02:07:01.670Z,806.95
2018-02-13T02:08:01.656Z,806.97
2018-02-13T02:09:01.659Z,806.91
2018-02-13T02:10:01.656Z,806.87
2018-02-13T02:11:01.652Z,806.91
2018-02-13T02:12:01.648Z,806.89
2018-02-13T02:13:01.696Z,806.86
2018-02-13T02:14:01.644Z,806.85
2018-02-13T02:15:01.632Z,806.87
2018-02-13T02:16:01.633Z,806.84
2018-02-13T02:17:01.633Z,806.82
2018-02-13T02:18:01.629Z,806.79
2018-02-13T02:19:01.621Z,806.78
2018-02-13T02:20:01.618Z,806.78
2018-02-13T02:21:01.615Z,806.78
2018-02-13T02:22:01.617Z,806.81
2018-02-13T02:23:01.614Z,806.79
2018-02-13T02:24:01.610Z,806.78
2018-02-13T02:25:01.607Z,806.73
2018-02-13T02:26:01.606Z,806.70
2018-02-13T02:27:01.600Z,806.76
2018-02-13T02:28:01.593Z,806.71
2018-02-13T02:29:01.594Z,806.70
2018-02-13T02:30:01.591Z,806.69
2018-02-13T02:31:01.586Z,806.70
2018-02-13T02:32:01.589Z,806.70
2018-02-13T02:33:01.581Z,806.72
2018-02-13T02:34:01.577Z,806.70
2018-02-13T02:35:01.572Z,806.70
2018-02-13T02:36:01.568Z,806.71
2018-02-13T02:37:01.561Z,806.68
2018-02-13T02:38:01.557Z,806.68
2018-02-13T02:39:01.559Z,806.72
2018-02-13T02:40:01.556Z,806.73
2018-02-13T02:41:01.547Z,806.71
2018-02-13T02:42:01.549Z,806.68
2018-02-13T02:43:01.538Z,806.69
2018-02-13T02:44:01.540Z,806.71
2018-02-13T02:45:01.532Z,806.66
2018-02-13T02:46:01.529Z,806.63
2018-02-13T02:47:01.530Z,806.66
2018-02-13T02:48:01.527Z,806.64
2018-02-13T02:49:01.523Z,806.62
2018-02-13T02:50:01.514Z,806.61
2018-02-13T02:51:01.515Z,806.57
2018-02-13T02:52:01.505Z,806.61
2018-02-13T02:53:01.502Z,806.59
2018-02-13T02:54:01.504Z,806.59
2018-02-13T02:55:01.500Z,806.61
2018-02-13T02:56:01.489Z,806.59
2018-02-13T02:57:01.488Z,806.55
2018-02-13T02:58:01.489Z,806.57
2018-02-13T02:59:01.484Z,806.57
2018-02-13T03:00:01.480Z,806.56
2018-02-13T03:01:01.472Z,806.56
2018-02-13T03:02:01.473Z,806.56
2018-02-13T03:03:01.468Z,806.56
2018-02-13T03:04:01.457Z,806.54
2018-02-13T03:05:01.456Z,806.55
2018-02-13T03:06:01.452Z,806.52
2018-02-13T03:07:01.445Z,806.53
2018-02-13T03:08:01.447Z,806.53
2018-02-13T03:09:01.438Z,806.56
2018-02-13T03:10:01.435Z,806.53
2018-02-13T03:11:01.436Z,806.49
2018-02-13T03:12:01.426Z,806.47
2018-02-13T03:13:01.429Z,806.51
2018-02-13T03:14:01.424Z,806.48
2018-02-13T03:15:01.414Z,806.49
2018-02-13T03:16:01.415Z,806.48
2018-02-13T03:17:01.412Z,806.46
2018-02-13T03:18:01.408Z,806.46
2018-02-13T03:19:01.402Z,806.48
2018-02-13T03:20:01.394Z,806.48
2018-02-13T03:21:01.389Z,806.46
2018-02-13T03:22:01.386Z,806.45
2018-02-13T03:23:01.387Z,806.49
2018-02-13T03:24:01.384Z,806.48
2018-02-13T03:25:01.374Z,806.46
2018-02-13T03:26:01.370Z,806.46
2018-02-13T03:27:01.371Z,806.49
2018-02-13T03:28:01.362Z,806.47
2018-02-13T03:29:01.358Z,806.43
2018-02-13T03:30:01.353Z,806.43
2018-02-13T03:31:01.356Z,806.46
2018-02-13T03:32:01.350Z,806.44
2018-02-13T03:33:01.399Z,806.39
2018-02-13T03:34:01.336Z,806.38
2018-02-13T03:35:01.340Z,806.40
2018-02-13T03:36:01.329Z,806.35
2018-02-13T03:37:01.325Z,806.34
2018-02-13T03:38:01.322Z,806.34
2018-02-13T03:39:01.316Z,806.33
2018-02-13T03:40:01.322Z,806.36
2018-02-13T03:41:01.309Z,806.33
2018-02-13T03:42:01.311Z,806.32
2018-02-13T03:43:01.307Z,806.35
2018-02-13T03:44:01.297Z,806.33
2018-02-13T03:45:01.293Z,806.32
2018-02-13T03:46:01.291Z,806.34
2018-02-13T03:47:01.286Z,806.36
2018-02-13T03:48:01.287Z,806.32
2018-02-13T03:49:01.283Z,806.32
2018-02-13T03:50:01.279Z,806.34
2018-02-13T03:51:01.275Z,806.27
2018-02-13T03:52:01.266Z,806.31
2018-02-13T03:53:01.263Z,806.28
2018-02-13T03:54:01.260Z,806.29
2018-02-13T03:55:01.254Z,806.29
2018-02-13T03:56:01.250Z,806.31
2018-02-13T03:57:01.247Z,806.31
2018-02-13T03:58:01.243Z,806.37
2018-02-13T03:59:01.240Z,806.34
2018-02-13T04:00:01.246Z,806.36
2018-02-13T04:01:01.232Z,806.36
2018-02-13T04:02:01.229Z,806.38
2018-02-13T04:03:01.229Z,806.40
2018-02-13T04:04:01.227Z,806.37
2018-02-13T04:05:01.217Z,806.38
2018-02-13T04:06:01.214Z,806.41
2018-02-13T04:07:01.215Z,806.36
2018-02-13T04:08:01.211Z,806.36
2018-02-13T04:09:01.209Z,806.38
2018-02-13T04:10:01.198Z,806.37
2018-02-13T04:11:01.195Z,806.36
2018-02-13T04:12:01.196Z,806.32
2018-02-13T04:13:01.192Z,806.36
2018-02-13T04:14:01.183Z,806.30
2018-02-13T04:15:01.181Z,806.36
2018-02-13T04:16:01.175Z,806.32
2018-02-13T04:17:01.176Z,806.31
2018-02-13T04:18:01.173Z,806.33
2018-02-13T04:19:01.170Z,806.30
2018-02-13T04:20:01.167Z,806.32
2018-02-13T04:21:01.159Z,806.29
2018-02-13T04:22:01.159Z,806.31
2018-02-13T04:23:01.155Z,806.29
2018-02-13T04:24:01.150Z,806.34
2018-02-13T04:25:01.148Z,806.32
2018-02-13T04:26:01.138Z,806.27
2018-02-13T04:27:01.141Z,806.26
2018-02-13T04:28:01.135Z,806.27
2018-02-13T04:29:01.128Z,806.26
2018-02-13T04:30:01.127Z,806.26
2018-02-13T04:31:01.119Z,806.27
2018-02-13T04:32:01.120Z,806.25
2018-02-13T04:33:01.117Z,806.28
2018-02-13T04:34:01.107Z,806.28
2018-02-13T04:35:01.108Z,806.23
2018-02-13T04:36:01.099Z,806.25
2018-02-13T04:37:01.096Z,806.23
2018-02-13T04:38:01.093Z,806.22
2018-02-13T04:39:01.088Z,806.22
2018-02-13T04:40:01.082Z,806.17
2018-02-13T04:41:01.081Z,806.13
2018-02-13T04:42:01.077Z,806.18
2018-02-13T04:43:01.071Z,806.15
2018-02-13T04:44:01.067Z,806.14
2018-02-13T04:45:01.072Z,806.13
2018-02-13T04:46:01.060Z,806.14
2018-02-13T04:47:01.057Z,806.09
2018-02-13T04:48:01.053Z,806.12
2018-02-13T04:49:01.054Z,806.05
2018-02-13T04:50:01.047Z,806.05
2018-02-13T04:51:01.046Z,806.04
2018-02-13T04:52:01.044Z,806.02
2018-02-13T04:53:01.038Z,806.00
2018-02-13T04:54:01.034Z,806.01
2018-02-13T04:55:01.032Z,806.08
2018-02-13T04:56:01.026Z,806.01
2018-02-13T04:57:01.022Z,806.04
2018-02-13T04:58:01.013Z,806.04
2018-02-13T04:59:01.014Z,806.05
2018-02-13T05:00:01.006Z,806.03
2018-02-13T05:01:01.008Z,806.04
2018-02-13T05:02:01.003Z,805.99
2018-02-13T05:03:01.005Z,806.00
2018-02-13T05:04:00.990Z,805.99
2018-02-13T05:05:00.992Z,805.98
2018-02-13T05:06:00.987Z,806.01
2018-02-13T05:07:00.981Z,805.99
2018-02-13T05:08:00.980Z,805.95
2018-02-13T05:09:00.977Z,805.95
2018-02-13T05:10:00.973Z,805.95
2018-02-13T05:11:01.026Z,805.94
2018-02-13T05:12:00.957Z,805.95
2018-02-13T05:13:00.952Z,805.90
2018-02-13T05:14:00.950Z,805.97
2018-02-13T05:15:00.951Z,805.95
2018-02-13T05:16:00.944Z,805.94
2018-02-13T05:17:00.942Z,805.94
2018-02-13T05:18:00.939Z,805.91
2018-02-13T05:19:00.928Z,805.95
2018-02-13T05:20:00.923Z,805.91
2018-02-13T05:21:00.919Z,805.90
2018-02-13T05:22:00.916Z,805.93
2018-02-13T05:23:00.917Z,805.94
2018-02-13T05:24:00.911Z,805.90
2018-02-13T05:25:00.909Z,805.94
2018-02-13T05:26:00.910Z,805.95
2018-02-13T05:27:00.900Z,805.98
2018-02-13T05:28:00.897Z,805.95
2018-02-13T05:29:00.893Z,805.93
2018-02-13T05:30:00.884Z,805.93
2018-02-13T05:31:00.878Z,805.94
2018-02-13T05:32:00.874Z,805.95
2018-02-13T05:33:00.876Z,805.93
2018-02-13T05:34:00.870Z,805.96
2018-02-13T05:35:00.867Z,805.92
2018-02-13T05:36:00.859Z,805.96
2018-02-13T05:37:00.860Z,805.92
2018-02-13T05:38:00.856Z,805.91
2018-02-13T05:39:00.850Z,805.91
2018-02-13T05:40:00.842Z,805.92
2018-02-13T05:41:00.843Z,805.94
2018-02-13T05:42:00.839Z,805.98
2018-02-13T05:43:00.832Z,805.99
2018-02-13T05:44:00.830Z,805.97
2018-02-13T05:45:00.827Z,805.95
2018-02-13T05:46:00.815Z,806.03
2018-02-13T05:47:00.811Z,805.96
2018-02-13T05:48:00.818Z,805.98
2018-02-13T05:49:00.806Z,806.01
2018-02-13T05:50:00.802Z,806.00
2018-02-13T05:51:00.801Z,805.97
2018-02-13T05:52:00.798Z,806.02
2018-02-13T05:53:00.788Z,806.01
2018-02-13T05:54:00.782Z,805.99
2018-02-13T05:55:00.777Z,806.01
2018-02-13T05:56:00.778Z,806.03
2018-02-13T05:57:00.769Z,806.00
2018-02-13T05:58:00.764Z,806.03
2018-02-13T05:59:00.765Z,806.04
2018-02-13T06:00:00.755Z,806.03
2018-02-13T06:01:00.759Z,806.05
2018-02-13T06:02:00.748Z,806.04
2018-02-13T06:03:00.749Z,806.01
2018-02-13T06:04:00.746Z,806.05
2018-02-13T06:05:00.739Z,806.02
2018-02-13T06:06:00.729Z,806.02
2018-02-13T06:07:00.733Z,806.02
2018-02-13T06:08:00.728Z,806.03
2018-02-13T06:09:00.717Z,805.97
2018-02-13T06:10:00.717Z,805.99
2018-02-13T06:11:00.708Z,806.00
2018-02-13T06:12:00.711Z,805.98
2018-02-13T06:13:00.699Z,805.98
2018-02-13T06:14:00.700Z,806.01
2018-02-13T06:15:00.696Z,806.04
2018-02-13T06:16:00.687Z,806.06
2018-02-13T06:17:00.683Z,806.02
2018-02-13T06:18:00.678Z,806.02
2018-02-13T06:19:00.674Z,806.01
2018-02-13T06:20:00.676Z,806.01
2018-02-13T06:21:00.664Z,806.05
2018-02-13T06:22:00.660Z,806.06
2018-02-13T06:23:00.661Z,806.03
2018-02-13T06:24:00.654Z,806.08
2018-02-13T06:25:00.647Z,806.04
2018-02-13T06:26:00.643Z,806.03
2018-02-13T06:27:00.647Z,806.06
2018-02-13T06:28:00.681Z,806.04
2018-02-13T06:29:00.631Z,806.02
2018-02-13T06:30:00.632Z,806.01
2018-02-13T06:31:00.627Z,806.03
2018-02-13T06:32:00.617Z,805.98
2018-02-13T06:33:00.615Z,805.98
2018-02-13T06:34:00.614Z,806.02
2018-02-13T06:35:00.613Z,806.02
2018-02-13T06:36:00.609Z,806.04
2018-02-13T06:37:00.596Z,806.06
2018-02-13T06:38:00.593Z,806.07
2018-02-13T06:39:00.588Z,806.07
2018-02-13T06:40:00.591Z,806.05
2018-02-13T06:41:00.587Z,806.02
2018-02-13T06:42:00.579Z,806.06
2018-02-13T06:43:00.575Z,806.03
2018-02-13T06:44:00.566Z,806.04
2018-02-13T06:45:00.562Z,805.99
2018-02-13T06:46:00.564Z,806.02
2018-02-13T06:47:00.559Z,806.03
2018-02-13T06:48:00.603Z,806.03
2018-02-13T06:49:00.544Z,806.02
2018-02-13T06:50:00.548Z,806.04
2018-02-13T06:51:00.535Z,806.02
2018-02-13T06:52:00.537Z,806.03
2018-02-13T06:53:00.533Z,806.01
2018-02-13T06:54:00.522Z,806.03
2018-02-13T06:55:00.523Z,806.03
2018-02-13T06:56:00.518Z,806.00
2018-02-13T06:57:00.515Z,806.06
2018-02-13T06:58:00.514Z,806.05
2018-02-13T06:59:00.501Z,806.05
2018-02-13T07:00:00.496Z,806.09
2018-02-13T07:01:00.497Z,806.08
2018-02-13T07:02:00.491Z,806.03
2018-02-13T07:03:00.481Z,806.03
2018-02-13T07:04:00.477Z,806.01
2018-02-13T07:05:00.471Z,806.00
2018-02-13T07:06:00.468Z,806.00
2018-02-13T07:07:00.463Z,806.00
2018-02-13T07:08:00.460Z,805.97
2018-02-13T07:09:00.454Z,805.99
2018-02-13T07:10:00.450Z,805.94
2018-02-13T07:11:00.449Z,805.96
2018-02-13T07:12:00.440Z,805.95
2018-02-13T07:13:00.441Z,805.96
2018-02-13T07:14:00.442Z,805.94
2018-02-13T07:15:00.432Z,805.88
2018-02-13T07:16:00.428Z,805.89
2018-02-13T07:17:00.422Z,805.89
2018-02-13T07:18:00.419Z,805.85
2018-02-13T07:19:00.415Z,805.88
2018-02-13T07:20:00.411Z,805.87
2018-02-13T07:21:00.407Z,805.86
2018-02-13T07:22:00.402Z,805.90
2018-02-13T07:23:00.391Z,805.89
2018-02-13T07:24:00.392Z,805.86
2018-02-13T07:25:00.384Z,805.92
2018-02-13T07:26:00.380Z,805.90
2018-02-13T07:27:00.373Z,805.92
2018-02-13T07:28:00.371Z,805.92
2018-02-13T07:29:00.369Z,805.89
2018-02-13T07:30:00.362Z,805.91
2018-02-13T07:31:00.360Z,805.94
2018-02-13T07:32:00.354Z,805.89
2018-02-13T07:33:00.356Z,805.86
2018-02-13T07:34:00.344Z,805.85
2018-02-13T07:35:00.405Z,805.82
2018-02-13T07:36:00.336Z,805.83
2018-02-13T07:37:00.341Z,805.81
2018-02-13T07:38:00.335Z,805.79
2018-02-13T07:39:00.330Z,805.78
2018-02-13T07:40:00.319Z,805.78
2018-02-13T07:41:00.319Z,805.73
2018-02-13T07:42:00.311Z,805.73
2018-02-13T07:43:00.311Z,805.73
2018-02-13T07:44:00.313Z,805.77
2018-02-13T07:45:00.304Z,805.74
2018-02-13T07:46:00.301Z,805.74
2018-02-13T07:47:00.295Z,805.72
2018-02-13T07:48:00.295Z,805.70
2018-02-13T07:49:00.284Z,805.66
2018-02-13T07:50:00.279Z,805.63
2018-02-13T07:51:00.279Z,805.65
2018-02-13T07:52:00.275Z,805.60
2018-02-13T07:53:00.273Z,805.66
2018-02-13T07:54:00.263Z,805.67
2018-02-13T07:55:00.257Z,805.64
2018-02-13T07:56:00.260Z,805.64
2018-02-13T07:57:00.255Z,805.66
2018-02-13T07:58:00.246Z,805.67
2018-02-13T07:59:00.241Z,805.66
2018-02-13T08:00:00.242Z,805.66
2018-02-13T08:01:00.235Z,805.63
2018-02-13T08:02:00.236Z,805.64
2018-02-13T08:03:00.224Z,805.61
2018-02-13T08:04:00.220Z,805.60
2018-02-13T08:05:00.222Z,805.60
2018-02-13T08:06:00.213Z,805.62
2018-02-13T08:07:00.208Z,805.63
2018-02-13T08:08:00.208Z,805.60
2018-02-13T08:09:00.201Z,805.63
2018-02-13T08:10:00.200Z,805.61
2018-02-13T08:11:00.201Z,805.62
2018-02-13T08:12:00.190Z,805.64
2018-02-13T08:13:00.191Z,805.60
2018-02-13T08:14:00.186Z,805.57
2018-02-13T08:15:00.196Z,805.55
2018-02-13T08:16:00.178Z,805.55
2018-02-13T08:17:00.179Z,805.61
2018-02-13T08:18:00.168Z,805.58
2018-02-13T08:19:00.168Z,805.59
2018-02-13T08:20:00.159Z,805.61
2018-02-13T08:21:00.154Z,805.58
2018-02-13T08:22:00.156Z,805.56
2018-02-13T08:23:00.146Z,805.52
2018-02-13T08:24:00.143Z,805.53
2018-02-13T08:25:00.144Z,805.53
2018-02-13T08:26:00.141Z,805.53
2018-02-13T08:27:00.131Z,805.52
2018-02-13T08:28:00.135Z,805.53
2018-02-13T08:29:00.127Z,805.52
2018-02-13T08:30:00.128Z,805.50
2018-02-13T08:31:00.119Z,805.54
2018-02-13T08:32:00.118Z,805.55
2018-02-13T08:33:00.114Z,805.51
2018-02-13T08:34:00.111Z,805.51
2018-02-13T08:35:00.109Z,805.53
2018-02-13T08:36:00.114Z,805.56
2018-02-13T08:37:00.103Z,805.53
2018-02-13T08:38:00.102Z,805.54
2018-02-13T08:39:00.097Z,805.53
2018-02-13T08:40:00.097Z,805.50
2018-02-13T08:41:00.098Z,805.51
2018-02-13T08:42:00.090Z,805.48
2018-02-13T08:43:00.094Z,805.51
2018-02-13T08:44:00.084Z,805.51
2018-02-13T08:45:00.106Z,805.48
2018-02-13T08:46:00.088Z,805.50
2018-02-13T08:47:00.079Z,805.54
2018-02-13T08:48:00.080Z,805.45
2018-02-13T08:49:00.082Z,805.49
2018-02-13T08:50:00.086Z,805.52
2018-02-13T08:51:00.073Z,805.53
2018-02-13T08:52:00.067Z,805.49
2018-02-13T08:53:00.066Z,805.50
2018-02-13T08:54:00.066Z,805.48
2018-02-13T08:55:00.063Z,805.49
2018-02-13T08:56:00.070Z,805.48
2018-02-13T08:57:00.067Z,805.46
2018-02-13T08:58:00.057Z,805.50
2018-02-13T08:59:00.063Z,805.52
2018-02-13T09:00:00.057Z,805.50
2018-02-13T09:01:00.072Z,805.50
2018-02-13T09:02:00.059Z,805.45
2018-02-13T09:03:00.057Z,805.46
2018-02-13T09:04:00.054Z,805.47
2018-02-13T09:05:00.053Z,805.43
2018-02-13T09:06:00.060Z,805.41
2018-02-13T09:07:00.050Z,805.44
2018-02-13T09:08:00.048Z,805.43
2018-02-13T09:09:00.047Z,805.45
2018-02-13T09:10:00.040Z,805.40
2018-02-13T09:11:00.042Z,805.42
2018-02-13T09:12:00.042Z,805.44
2018-02-13T09:13:00.040Z,805.46
2018-02-13T09:14:00.039Z,805.50
2018-02-13T09:15:00.033Z,805.47
2018-02-13T09:16:00.034Z,805.47
2018-02-13T09:17:00.029Z,805.45
2018-02-13T09:18:00.033Z,805.47
2018-02-13T09:19:00.029Z,805.47
2018-02-13T09:20:00.033Z,805.42
2018-02-13T09:21:00.033Z,805.45
2018-02-13T09:22:00.038Z,805.45
2018-02-13T09:23:00.036Z,805.38
2018-02-13T09:24:00.025Z,805.41
2018-02-13T09:25:00.019Z,805.36
2018-02-13T09:26:00.023Z,805.41
2018-02-13T09:27:00.027Z,805.40
2018-02-13T09:28:00.032Z,805.37
2018-02-13T09:29:00.022Z,805.43
2018-02-13T09:30:00.023Z,805.39
2018-02-13T09:31:00.015Z,805.40
2018-02-13T09:32:00.013Z,805.41
2018-02-13T09:33:00.016Z,805.43
2018-02-13T09:34:00.017Z,805.39
2018-02-13T09:35:00.012Z,805.40
2018-02-13T09:36:00.010Z,805.42
2018-02-13T09:37:00.021Z,805.40
2018-02-13T09:38:00.010Z,805.43
2018-02-13T09:39:00.008Z,805.41
2018-02-13T09:40:00.013Z,805.40
2018-02-13T09:41:00.010Z,805.39
2018-02-13T09:42:00.008Z,805.39
2018-02-13T09:43:00.018Z,805.45
2018-02-13T09:44:00.010Z,805.38
2018-02-13T09:45:00.011Z,805.39
2018-02-13T09:46:00.010Z,805.40
2018-02-13T09:47:00.011Z,805.37
2018-02-13T09:48:00.005Z,805.38
2018-02-13T09:49:00.008Z,805.41
2018-02-13T09:50:00.001Z,805.40
2018-02-13T09:51:00.000Z,805.37
2018-02-13T09:52:00.008Z,805.42
2018-02-13T09:53:00.012Z,805.37
2018-02-13T09:54:00.006Z,805.40
2018-02-13T09:55:00.002Z,805.37
2018-02-13T09:56:00.021Z,805.39
2018-02-13T09:57:00.009Z,805.35
2018-02-13T09:58:00.004Z,805.36
2018-02-13T09:59:00.015Z,805.33
2018-02-13T10:00:00.004Z,805.31
2018-02-13T10:01:00.003Z,805.33
2018-02-13T10:02:00.003Z,805.32
2018-02-13T10:03:00.001Z,805.33
2018-02-13T10:04:00.002Z,805.29
2018-02-13T10:05:00.011Z,805.30
2018-02-13T10:06:00.011Z,805.27
2018-02-13T10:07:00.009Z,805.29
2018-02-13T10:08:00.012Z,805.24
2018-02-13T10:09:00.013Z,805.21
2018-02-13T10:10:00.012Z,805.23
2018-02-13T10:11:00.011Z,805.25
2018-02-13T10:12:00.009Z,805.29
2018-02-13T10:13:00.007Z,805.25
2018-02-13T10:14:00.013Z,805.29
2018-02-13T10:15:00.012Z,805.30
2018-02-13T10:16:00.014Z,805.30
2018-02-13T10:17:00.019Z,805.29
2018-02-13T10:18:00.025Z,805.27
2018-02-13T10:19:00.015Z,805.27
2018-02-13T10:20:00.026Z,805.24
2018-02-13T10:21:00.016Z,805.28
2018-02-13T10:22:00.025Z,805.26
2018-02-13T10:23:00.023Z,805.27
2018-02-13T10:24:00.059Z,805.25
2018-02-13T10:25:00.039Z,805.26
2018-02-13T10:26:00.030Z,805.26
2018-02-13T10:27:00.035Z,805.21
2018-02-13T10:28:00.032Z,805.27
2018-02-13T10:29:00.028Z,805.23
2018-02-13T10:30:00.043Z,805.24
2018-02-13T10:31:00.029Z,805.24
2018-02-13T10:32:00.081Z,805.25
2018-02-13T10:33:00.043Z,805.21
2018-02-13T10:34:00.033Z,805.17
2018-02-13T10:35:00.046Z,805.20
2018-02-13T10:36:00.037Z,805.15
2018-02-13T10:37:00.051Z,805.17
2018-02-13T10:38:00.055Z,805.17
2018-02-13T10:39:00.043Z,805.20
2018-02-13T10:40:00.064Z,805.12
2018-02-13T10:41:00.067Z,805.19
2018-02-13T10:42:00.049Z,805.20
2018-02-13T10:43:00.056Z,805.11
2018-02-13T10:44:00.053Z,805.14
2018-02-13T10:45:00.070Z,805.09
2018-02-13T10:46:00.066Z,805.07
2018-02-13T10:47:00.066Z,805.06
2018-02-13T10:48:00.095Z,805.11
2018-02-13T10:49:00.071Z,805.10
2018-02-13T10:50:00.072Z,805.01
2018-02-13T10:51:00.069Z,805.06
2018-02-13T10:52:00.077Z,805.03
2018-02-13T10:53:00.075Z,805.03
2018-02-13T10:54:00.082Z,805.04
2018-02-13T10:55:00.086Z,805.07
2018-02-13T10:56:00.083Z,805.06
2018-02-13T10:57:00.086Z,805.06
2018-02-13T10:58:00.087Z,805.05
2018-02-13T10:59:00.095Z,805.03
2018-02-13T11:00:00.101Z,805.05
2018-02-13T11:01:00.101Z,805.06
2018-02-13T11:02:00.104Z,805.02
2018-02-13T11:03:00.107Z,805.04
2018-02-13T11:04:00.109Z,805.02
2018-02-13T11:05:00.115Z,804.98
2018-02-13T11:06:00.109Z,804.95
2018-02-13T11:07:00.118Z,804.97
2018-02-13T11:08:00.114Z,804.92
2018-02-13T11:09:00.118Z,804.91
2018-02-13T11:10:00.121Z,804.94
2018-02-13T11:11:00.122Z,804.93
2018-02-13T11:12:00.131Z,804.94
2018-02-13T11:13:00.134Z,804.91
2018-02-13T11:14:00.133Z,804.90
2018-02-13T11:15:00.138Z,804.92
2018-02-13T11:16:00.144Z,804.88
2018-02-13T11:17:00.146Z,804.88
2018-02-13T11:18:00.148Z,804.82
2018-02-13T11:19:00.210Z,804.79
2018-02-13T11:20:00.148Z,804.79
2018-02-13T11:21:00.152Z,804.81
2018-02-13T11:22:00.161Z,804.80
2018-02-13T11:23:00.166Z,804.79
2018-02-13T11:24:00.167Z,804.78
2018-02-13T11:25:00.163Z,804.79
2018-02-13T11:26:00.173Z,804.75
2018-02-13T11:27:00.176Z,804.65
2018-02-13T11:28:00.181Z,804.67
2018-02-13T11:29:00.182Z,804.67
2018-02-13T11:30:00.181Z,804.72
2018-02-13T11:31:00.189Z,804.70
2018-02-13T11:32:00.186Z,804.71
2018-02-13T11:33:00.196Z,804.71
2018-02-13T11:34:00.201Z,804.73
2018-02-13T11:35:00.203Z,804.71
2018-02-13T11:36:00.205Z,804.71
2018-02-13T11:37:00.205Z,804.65
2018-02-13T11:38:00.213Z,804.60
2018-02-13T11:39:00.211Z,804.63
2018-02-13T11:40:00.222Z,804.60
2018-02-13T11:41:00.226Z,804.59
2018-02-13T11:42:00.225Z,804.61
2018-02-13T11:43:00.235Z,804.55
2018-02-13T11:44:00.236Z,804.56
2018-02-13T11:45:00.236Z,804.49
2018-02-13T11:46:00.241Z,804.49
2018-02-13T11:47:00.248Z,804.45
2018-02-13T11:48:00.254Z,804.43
2018-02-13T11:49:00.253Z,804.47
2018-02-13T11:50:00.257Z,804.48
2018-02-13T11:51:00.267Z,804.45
2018-02-13T11:52:00.271Z,804.47
2018-02-13T11:53:00.271Z,804.41
2018-02-13T11:54:00.274Z,804.39
2018-02-13T11:55:00.279Z,804.41
2018-02-13T11:56:00.287Z,804.35
2018-02-13T11:57:00.286Z,804.34
2018-02-13T11:58:00.297Z,804.36
2018-02-13T11:59:00.300Z,804.37
2018-02-13T12:00:00.303Z,804.30
2018-02-13T12:01:00.309Z,804.32
2018-02-13T12:02:00.306Z,804.29
2018-02-13T12:03:00.311Z,804.25
2018-02-13T12:04:00.320Z,804.25
2018-02-13T12:05:00.320Z,804.27
2018-02-13T12:06:00.332Z,804.22
2018-02-13T12:07:00.328Z,804.21
2018-02-13T12:08:00.337Z,804.22
2018-02-13T12:09:00.341Z,804.19
2018-02-13T12:10:00.345Z,804.18
2018-02-13T12:11:00.350Z,804.14
2018-02-13T12:12:00.354Z,804.15
2018-02-13T12:13:00.354Z,804.15
2018-02-13T12:14:00.363Z,804.05
2018-02-13T12:15:00.367Z,804.05
2018-02-13T12:16:00.376Z,804.04
2018-02-13T12:17:00.370Z,803.97
2018-02-13T12:18:00.381Z,803.95
2018-02-13T12:19:00.380Z,803.98
2018-02-13T12:20:00.387Z,803.99
2018-02-13T12:21:00.388Z,803.96
2018-02-13T12:22:00.393Z,803.99
2018-02-13T12:23:00.398Z,803.95
2018-02-13T12:24:00.409Z,803.92
2018-02-13T12:25:00.413Z,803.93
2018-02-13T12:26:00.413Z,803.89
2018-02-13T12:27:00.417Z,803.85
2018-02-13T12:28:00.425Z,803.91